sensor_id;sensor_type;location;lat;lon;timestamp;pressure;altitude;pressure_sealevel;temperature
15360;BMP280;7779;49.596;11.070;2024-01-06T00:01:47;97106.47;;;6.94
15360;BMP280;7779;49.596;11.070;2024-01-06T00:04:13;97102.28;;;6.93
15360;BMP280;7779;49.596;11.070;2024-01-06T00:06:38;97103.88;;;6.92
15360;BMP280;7779;49.596;11.070;2024-01-06T00:09:04;97108.88;;;6.92
15360;BMP280;7779;49.596;11.070;2024-01-06T00:11:30;97101.25;;;6.89
15360;BMP280;7779;49.596;11.070;2024-01-06T00:13:56;97108.72;;;6.89
15360;BMP280;7779;49.596;11.070;2024-01-06T00:16:22;97107.78;;;6.87
15360;BMP280;7779;49.596;11.070;2024-01-06T00:18:48;97110.25;;;6.87
15360;BMP280;7779;49.596;11.070;2024-01-06T00:21:14;97118.53;;;6.86
15360;BMP280;7779;49.596;11.070;2024-01-06T00:23:40;97128.47;;;6.86
15360;BMP280;7779;49.596;11.070;2024-01-06T00:26:07;97130.88;;;6.85
15360;BMP280;7779;49.596;11.070;2024-01-06T00:28:34;97126.63;;;6.82
15360;BMP280;7779;49.596;11.070;2024-01-06T00:30:59;97132.44;;;6.83
15360;BMP280;7779;49.596;11.070;2024-01-06T00:33:25;97126.53;;;6.81
15360;BMP280;7779;49.596;11.070;2024-01-06T00:35:51;97133.16;;;6.80
15360;BMP280;7779;49.596;11.070;2024-01-06T00:38:16;97128.09;;;6.79
15360;BMP280;7779;49.596;11.070;2024-01-06T00:40:42;97136.31;;;6.78
15360;BMP280;7779;49.596;11.070;2024-01-06T00:43:08;97128.84;;;6.78
15360;BMP280;7779;49.596;11.070;2024-01-06T00:45:34;97133.00;;;6.77
15360;BMP280;7779;49.596;11.070;2024-01-06T00:47:59;97134.53;;;6.75
15360;BMP280;7779;49.596;11.070;2024-01-06T00:50:25;97137.03;;;6.75
15360;BMP280;7779;49.596;11.070;2024-01-06T00:52:51;97142.78;;;6.74
15360;BMP280;7779;49.596;11.070;2024-01-06T00:55:19;97139.34;;;6.72
15360;BMP280;7779;49.596;11.070;2024-01-06T00:57:45;97146.81;;;6.72
15360;BMP280;7779;49.596;11.070;2024-01-06T01:00:12;97148.38;;;6.70
15360;BMP280;7779;49.596;11.070;2024-01-06T01:02:38;97146.75;;;6.71
15360;BMP280;7779;49.596;11.070;2024-01-06T01:05:04;97149.19;;;6.69
15360;BMP280;7779;49.596;11.070;2024-01-06T01:07:30;97150.03;;;6.70
15360;BMP280;7779;49.596;11.070;2024-01-06T01:09:56;97144.19;;;6.69
15360;BMP280;7779;49.596;11.070;2024-01-06T01:12:23;97155.84;;;6.70
15360;BMP280;7779;49.596;11.070;2024-01-06T01:14:50;97161.63;;;6.69
15360;BMP280;7779;49.596;11.070;2024-01-06T01:17:16;97163.22;;;6.69
15360;BMP280;7779;49.596;11.070;2024-01-06T01:19:42;97159.13;;;6.69
15360;BMP280;7779;49.596;11.070;2024-01-06T01:22:08;97163.22;;;6.69
15360;BMP280;7779;49.596;11.070;2024-01-06T01:24:34;97161.53;;;6.68
15360;BMP280;7779;49.596;11.070;2024-01-06T01:26:59;97167.34;;;6.68
15360;BMP280;7779;49.596;11.070;2024-01-06T01:29:25;97170.63;;;6.67
15360;BMP280;7779;49.596;11.070;2024-01-06T01:31:51;97177.22;;;6.67
15360;BMP280;7779;49.596;11.070;2024-01-06T01:34:16;97167.19;;;6.65
15360;BMP280;7779;49.596;11.070;2024-01-06T01:36:42;97165.50;;;6.64
15360;BMP280;7779;49.596;11.070;2024-01-06T01:39:08;97164.66;;;6.64
15360;BMP280;7779;49.596;11.070;2024-01-06T01:41:34;97169.53;;;6.62
15360;BMP280;7779;49.596;11.070;2024-01-06T01:43:59;97165.22;;;6.60
15360;BMP280;7779;49.596;11.070;2024-01-06T01:46:30;97175.13;;;6.59
15360;BMP280;7779;49.596;11.070;2024-01-06T01:48:58;97168.44;;;6.58
15360;BMP280;7779;49.596;11.070;2024-01-06T01:51:29;97177.53;;;6.57
15360;BMP280;7779;49.596;11.070;2024-01-06T01:54:00;97174.97;;;6.56
15360;BMP280;7779;49.596;11.070;2024-01-06T01:56:27;97177.38;;;6.54
15360;BMP280;7779;49.596;11.070;2024-01-06T01:58:53;97181.50;;;6.54
15360;BMP280;7779;49.596;11.070;2024-01-06T02:01:19;97173.94;;;6.52
15360;BMP280;7779;49.596;11.070;2024-01-06T02:03:45;97173.84;;;6.51
15360;BMP280;7779;49.596;11.070;2024-01-06T02:06:11;97173.00;;;6.50
15360;BMP280;7779;49.596;11.070;2024-01-06T02:08:38;97171.22;;;6.48
15360;BMP280;7779;49.596;11.070;2024-01-06T02:11:05;97172.94;;;6.49
15360;BMP280;7779;49.596;11.070;2024-01-06T02:13:35;97170.34;;;6.47
15360;BMP280;7779;49.596;11.070;2024-01-06T02:16:05;97172.75;;;6.46
15360;BMP280;7779;49.596;11.070;2024-01-06T02:18:32;97170.22;;;6.44
15360;BMP280;7779;49.596;11.070;2024-01-06T02:21:01;97170.88;;;6.42
15360;BMP280;7779;49.596;11.070;2024-01-06T02:23:27;97169.19;;;6.41
15360;BMP280;7779;49.596;11.070;2024-01-06T02:25:53;97167.47;;;6.40
15360;BMP280;7779;49.596;11.070;2024-01-06T02:28:19;97170.75;;;6.39
15360;BMP280;7779;49.596;11.070;2024-01-06T02:30:45;97167.47;;;6.40
15360;BMP280;7779;49.596;11.070;2024-01-06T02:33:11;97166.72;;;6.41
15360;BMP280;7779;49.596;11.070;2024-01-06T02:35:37;97174.16;;;6.41
15360;BMP280;7779;49.596;11.070;2024-01-06T02:38:03;97165.91;;;6.42
15360;BMP280;7779;49.596;11.070;2024-01-06T02:40:29;97177.59;;;6.43
15360;BMP280;7779;49.596;11.070;2024-01-06T02:42:54;97170.22;;;6.44
15360;BMP280;7779;49.596;11.070;2024-01-06T02:45:20;97167.78;;;6.46
15360;BMP280;7779;49.596;11.070;2024-01-06T02:47:46;97169.50;;;6.47
15360;BMP280;7779;49.596;11.070;2024-01-06T02:50:12;97179.47;;;6.47
15360;BMP280;7779;49.596;11.070;2024-01-06T02:52:37;97180.31;;;6.47
15360;BMP280;7779;49.596;11.070;2024-01-06T02:55:04;97177.13;;;6.50
15360;BMP280;7779;49.596;11.070;2024-01-06T02:57:30;97178.75;;;6.49
15360;BMP280;7779;49.596;11.070;2024-01-06T02:59:56;97179.63;;;6.50
15360;BMP280;7779;49.596;11.070;2024-01-06T03:02:22;97184.59;;;6.50
15360;BMP280;7779;49.596;11.070;2024-01-06T03:04:48;97189.56;;;6.50
15360;BMP280;7779;49.596;11.070;2024-01-06T03:07:14;97197.03;;;6.50
15360;BMP280;7779;49.596;11.070;2024-01-06T03:09:40;97194.56;;;6.50
15360;BMP280;7779;49.596;11.070;2024-01-06T03:12:06;97201.22;;;6.51
15360;BMP280;7779;49.596;11.070;2024-01-06T03:14:35;97192.13;;;6.51
15360;BMP280;7779;49.596;11.070;2024-01-06T03:17:01;97193.09;;;6.53
15360;BMP280;7779;49.596;11.070;2024-01-06T03:19:26;97192.22;;;6.53
15360;BMP280;7779;49.596;11.070;2024-01-06T03:21:53;97188.97;;;6.54
15360;BMP280;7779;49.596;11.070;2024-01-06T03:24:21;97183.19;;;6.55
15360;BMP280;7779;49.596;11.070;2024-01-06T03:26:46;97188.16;;;6.55
15360;BMP280;7779;49.596;11.070;2024-01-06T03:29:12;97190.59;;;6.53
15360;BMP280;7779;49.596;11.070;2024-01-06T03:31:42;97198.13;;;6.55
15360;BMP280;7779;49.596;11.070;2024-01-06T03:34:07;97198.13;;;6.55
15360;BMP280;7779;49.596;11.070;2024-01-06T03:36:34;97187.41;;;6.56
15360;BMP280;7779;49.596;11.070;2024-01-06T03:38:59;97193.31;;;6.58
15360;BMP280;7779;49.596;11.070;2024-01-06T03:41:25;97200.00;;;6.59
15360;BMP280;7779;49.596;11.070;2024-01-06T03:43:51;97196.72;;;6.60
15360;BMP280;7779;49.596;11.070;2024-01-06T03:46:16;97195.97;;;6.61
15360;BMP280;7779;49.596;11.070;2024-01-06T03:48:42;97196.91;;;6.62
15360;BMP280;7779;49.596;11.070;2024-01-06T03:51:09;97203.56;;;6.63
15360;BMP280;7779;49.596;11.070;2024-01-06T03:53:35;97203.56;;;6.63
15360;BMP280;7779;49.596;11.070;2024-01-06T03:56:00;97205.22;;;6.63
15360;BMP280;7779;49.596;11.070;2024-01-06T03:58:26;97205.31;;;6.64
15360;BMP280;7779;49.596;11.070;2024-01-06T04:00:52;97212.75;;;6.64
15360;BMP280;7779;49.596;11.070;2024-01-06T04:03:17;97208.72;;;6.66
15360;BMP280;7779;49.596;11.070;2024-01-06T04:05:46;97210.38;;;6.66
15360;BMP280;7779;49.596;11.070;2024-01-06T04:08:12;97207.00;;;6.65
15360;BMP280;7779;49.596;11.070;2024-01-06T04:10:37;97214.56;;;6.67
15360;BMP280;7779;49.596;11.070;2024-01-06T04:13:04;97213.69;;;6.66
15360;BMP280;7779;49.596;11.070;2024-01-06T04:15:29;97226.16;;;6.66
15360;BMP280;7779;49.596;11.070;2024-01-06T04:18:00;97221.16;;;6.66
15360;BMP280;7779;49.596;11.070;2024-01-06T04:20:26;97221.09;;;6.65
15360;BMP280;7779;49.596;11.070;2024-01-06T04:22:52;97216.81;;;6.62
15360;BMP280;7779;49.596;11.070;2024-01-06T04:25:18;97218.50;;;6.63
15360;BMP280;7779;49.596;11.070;2024-01-06T04:27:43;97230.81;;;6.61
15360;BMP280;7779;49.596;11.070;2024-01-06T04:30:11;97229.06;;;6.60
15360;BMP280;7779;49.596;11.070;2024-01-06T04:32:37;97238.09;;;6.58
15360;BMP280;7779;49.596;11.070;2024-01-06T04:35:02;97223.00;;;6.55
15360;BMP280;7779;49.596;11.070;2024-01-06T04:37:28;97231.25;;;6.54
15360;BMP280;7779;49.596;11.070;2024-01-06T04:39:54;97230.31;;;6.52
15360;BMP280;7779;49.596;11.070;2024-01-06T04:42:19;97230.22;;;6.50
15360;BMP280;7779;49.596;11.070;2024-01-06T04:44:48;97234.19;;;6.47
15360;BMP280;7779;49.596;11.070;2024-01-06T04:47:14;97234.00;;;6.44
15360;BMP280;7779;49.596;11.070;2024-01-06T04:49:40;97224.75;;;6.41
15360;BMP280;7779;49.596;11.070;2024-01-06T04:52:05;97230.44;;;6.39
15360;BMP280;7779;49.596;11.070;2024-01-06T04:54:31;97219.47;;;6.35
15360;BMP280;7779;49.596;11.070;2024-01-06T04:56:59;97221.88;;;6.34
15360;BMP280;7779;49.596;11.070;2024-01-06T04:59:24;97230.88;;;6.32
15360;BMP280;7779;49.596;11.070;2024-01-06T05:01:55;97228.22;;;6.29
15360;BMP280;7779;49.596;11.070;2024-01-06T05:04:22;97231.50;;;6.28
15360;BMP280;7779;49.596;11.070;2024-01-06T05:06:48;97225.63;;;6.27
15360;BMP280;7779;49.596;11.070;2024-01-06T05:09:15;97228.91;;;6.26
15360;BMP280;7779;49.596;11.070;2024-01-06T05:11:43;97230.53;;;6.26
15360;BMP280;7779;49.596;11.070;2024-01-06T05:14:09;97235.34;;;6.23
15360;BMP280;7779;49.596;11.070;2024-01-06T05:16:35;97228.66;;;6.22
15360;BMP280;7779;49.596;11.070;2024-01-06T05:19:01;97231.13;;;6.22
15360;BMP280;7779;49.596;11.070;2024-01-06T05:21:27;97229.44;;;6.21
15360;BMP280;7779;49.596;11.070;2024-01-06T05:23:52;97231.75;;;6.18
15360;BMP280;7779;49.596;11.070;2024-01-06T05:26:18;97229.25;;;6.18
15360;BMP280;7779;49.596;11.070;2024-01-06T05:28:44;97237.50;;;6.17
15360;BMP280;7779;49.596;11.070;2024-01-06T05:31:09;97249.84;;;6.16
15360;BMP280;7779;49.596;11.070;2024-01-06T05:33:35;97248.97;;;6.15
15360;BMP280;7779;49.596;11.070;2024-01-06T05:36:02;97257.22;;;6.14
15360;BMP280;7779;49.596;11.070;2024-01-06T05:38:27;97263.75;;;6.12
15360;BMP280;7779;49.596;11.070;2024-01-06T05:40:53;97260.38;;;6.12
15360;BMP280;7779;49.596;11.070;2024-01-06T05:43:19;97273.50;;;6.09
15360;BMP280;7779;49.596;11.070;2024-01-06T05:45:44;97267.69;;;6.09
15360;BMP280;7779;49.596;11.070;2024-01-06T05:48:11;97273.50;;;6.09
15360;BMP280;7779;49.596;11.070;2024-01-06T05:50:40;97276.78;;;6.08
15360;BMP280;7779;49.596;11.070;2024-01-06T05:53:06;97273.31;;;6.06
15360;BMP280;7779;49.596;11.070;2024-01-06T05:55:32;97284.06;;;6.05
15360;BMP280;7779;49.596;11.070;2024-01-06T05:57:58;97283.22;;;6.05
15360;BMP280;7779;49.596;11.070;2024-01-06T06:00:24;97283.97;;;6.04
15360;BMP280;7779;49.596;11.070;2024-01-06T06:02:49;97278.81;;;6.01
15360;BMP280;7779;49.596;11.070;2024-01-06T06:05:15;97286.22;;;5.99
15360;BMP280;7779;49.596;11.070;2024-01-06T06:07:41;97287.75;;;5.97
15360;BMP280;7779;49.596;11.070;2024-01-06T06:10:10;97299.22;;;5.95
15360;BMP280;7779;49.596;11.070;2024-01-06T06:12:36;97304.19;;;5.95
15360;BMP280;7779;49.596;11.070;2024-01-06T06:15:03;97307.44;;;5.94
15360;BMP280;7779;49.596;11.070;2024-01-06T06:17:30;97305.72;;;5.93
15360;BMP280;7779;49.596;11.070;2024-01-06T06:19:57;97309.84;;;5.93
15360;BMP280;7779;49.596;11.070;2024-01-06T06:22:24;97318.94;;;5.92
15360;BMP280;7779;49.596;11.070;2024-01-06T06:24:52;97318.75;;;5.89
15360;BMP280;7779;49.596;11.070;2024-01-06T06:27:18;97327.75;;;5.87
15360;BMP280;7779;49.596;11.070;2024-01-06T06:29:43;97334.25;;;5.85
15360;BMP280;7779;49.596;11.070;2024-01-06T06:32:09;97338.09;;;5.81
15360;BMP280;7779;49.596;11.070;2024-01-06T06:34:35;97335.47;;;5.78
15360;BMP280;7779;49.596;11.070;2024-01-06T06:37:00;97333.44;;;5.72
15360;BMP280;7779;49.596;11.070;2024-01-06T06:39:26;97337.38;;;5.69
15360;BMP280;7779;49.596;11.070;2024-01-06T06:41:52;97343.72;;;5.64
15360;BMP280;7779;49.596;11.070;2024-01-06T06:44:18;97343.41;;;5.59
15360;BMP280;7779;49.596;11.070;2024-01-06T06:46:44;97346.41;;;5.54
15360;BMP280;7779;49.596;11.070;2024-01-06T06:49:10;97348.72;;;5.51
15360;BMP280;7779;49.596;11.070;2024-01-06T06:51:35;97347.59;;;5.46
15360;BMP280;7779;49.596;11.070;2024-01-06T06:54:01;97353.91;;;5.41
15360;BMP280;7779;49.596;11.070;2024-01-06T06:56:27;97363.66;;;5.38
15360;BMP280;7779;49.596;11.070;2024-01-06T06:58:52;97355.09;;;5.33
15360;BMP280;7779;49.596;11.070;2024-01-06T07:01:18;97368.00;;;5.28
15360;BMP280;7779;49.596;11.070;2024-01-06T07:03:44;97374.41;;;5.24
15360;BMP280;7779;49.596;11.070;2024-01-06T07:06:12;97374.19;;;5.21
15360;BMP280;7779;49.596;11.070;2024-01-06T07:08:38;97376.41;;;5.17
15360;BMP280;7779;49.596;11.070;2024-01-06T07:11:04;97378.69;;;5.14
15360;BMP280;7779;49.596;11.070;2024-01-06T07:13:30;97373.47;;;5.09
15360;BMP280;7779;49.596;11.070;2024-01-06T07:15:56;97374.13;;;5.07
15360;BMP280;7779;49.596;11.070;2024-01-06T07:18:21;97372.31;;;5.04
15360;BMP280;7779;49.596;11.070;2024-01-06T07:20:49;97375.56;;;5.03
15360;BMP280;7779;49.596;11.070;2024-01-06T07:23:15;97383.69;;;5.01
15360;BMP280;7779;49.596;11.070;2024-01-06T07:25:40;97385.22;;;4.99
15360;BMP280;7779;49.596;11.070;2024-01-06T07:28:06;97404.22;;;4.99
15360;BMP280;7779;49.596;11.070;2024-01-06T07:30:34;97415.00;;;4.99
15360;BMP280;7779;49.596;11.070;2024-01-06T07:32:59;97419.19;;;5.00
15360;BMP280;7779;49.596;11.070;2024-01-06T07:35:25;97418.44;;;5.01
15360;BMP280;7779;49.596;11.070;2024-01-06T07:37:51;97417.75;;;5.03
15360;BMP280;7779;49.596;11.070;2024-01-06T07:40:18;97405.53;;;5.06
15360;BMP280;7779;49.596;11.070;2024-01-06T07:42:44;97413.09;;;5.08
15360;BMP280;7779;49.596;11.070;2024-01-06T07:45:10;97404.97;;;5.10
15360;BMP280;7779;49.596;11.070;2024-01-06T07:47:36;97405.91;;;5.12
15360;BMP280;7779;49.596;11.070;2024-01-06T07:50:03;97408.59;;;5.15
15360;BMP280;7779;49.596;11.070;2024-01-06T07:52:30;97416.22;;;5.18
15360;BMP280;7779;49.596;11.070;2024-01-06T07:54:56;97420.63;;;5.22
15360;BMP280;7779;49.596;11.070;2024-01-06T07:57:21;97414.31;;;5.27
15360;BMP280;7779;49.596;11.070;2024-01-06T07:59:47;97419.44;;;5.30
15360;BMP280;7779;49.596;11.070;2024-01-06T08:02:13;97427.09;;;5.33
15360;BMP280;7779;49.596;11.070;2024-01-06T08:04:38;97424.97;;;5.39
15360;BMP280;7779;49.596;11.070;2024-01-06T08:07:04;97429.34;;;5.43
15360;BMP280;7779;49.596;11.070;2024-01-06T08:09:30;97429.75;;;5.49
15360;BMP280;7779;49.596;11.070;2024-01-06T08:11:55;97435.06;;;5.55
15360;BMP280;7779;49.596;11.070;2024-01-06T08:14:21;97437.06;;;5.60
15360;BMP280;7779;49.596;11.070;2024-01-06T08:16:47;97434.19;;;5.67
15360;BMP280;7779;49.596;11.070;2024-01-06T08:19:13;97433.59;;;5.71
15360;BMP280;7779;49.596;11.070;2024-01-06T08:21:39;97447.28;;;5.78
15360;BMP280;7779;49.596;11.070;2024-01-06T08:24:04;97453.47;;;5.84
15360;BMP280;7779;49.596;11.070;2024-01-06T08:26:31;97454.69;;;5.90
15360;BMP280;7779;49.596;11.070;2024-01-06T08:28:57;97444.34;;;5.97
15360;BMP280;7779;49.596;11.070;2024-01-06T08:31:22;97443.91;;;6.04
15360;BMP280;7779;49.596;11.070;2024-01-06T08:33:48;97446.78;;;6.10
15360;BMP280;7779;49.596;11.070;2024-01-06T08:36:14;97457.06;;;6.16
15360;BMP280;7779;49.596;11.070;2024-01-06T08:38:40;97448.25;;;6.21
15360;BMP280;7779;49.596;11.070;2024-01-06T08:41:05;97446.88;;;6.26
15360;BMP280;7779;49.596;11.070;2024-01-06T08:43:31;97435.56;;;6.31
15360;BMP280;7779;49.596;11.070;2024-01-06T08:45:57;97440.03;;;6.36
15360;BMP280;7779;49.596;11.070;2024-01-06T08:48:22;97445.38;;;6.42
15360;BMP280;7779;49.596;11.070;2024-01-06T08:50:48;97444.78;;;6.46
15360;BMP280;7779;49.596;11.070;2024-01-06T08:53:14;97455.16;;;6.54
15360;BMP280;7779;49.596;11.070;2024-01-06T08:55:41;97445.53;;;6.60
15360;BMP280;7779;49.596;11.070;2024-01-06T08:58:06;97458.41;;;6.67
15360;BMP280;7779;49.596;11.070;2024-01-06T09:00:32;97459.72;;;6.75
15360;BMP280;7779;49.596;11.070;2024-01-06T09:02:58;97459.25;;;6.82
15360;BMP280;7779;49.596;11.070;2024-01-06T09:05:23;97462.22;;;6.89
15360;BMP280;7779;49.596;11.070;2024-01-06T09:07:49;97459.25;;;6.96
15360;BMP280;7779;49.596;11.070;2024-01-06T09:10:18;97463.91;;;7.04
15360;BMP280;7779;49.596;11.070;2024-01-06T09:12:44;97467.59;;;7.11
15360;BMP280;7779;49.596;11.070;2024-01-06T09:15:10;97460.44;;;7.17
15360;BMP280;7779;49.596;11.070;2024-01-06T09:17:36;97460.69;;;7.21
15360;BMP280;7779;49.596;11.070;2024-01-06T09:20:02;97459.22;;;7.25
15360;BMP280;7779;49.596;11.070;2024-01-06T09:22:28;97457.09;;;7.31
15360;BMP280;7779;49.596;11.070;2024-01-06T09:24:54;97466.44;;;7.35
15360;BMP280;7779;49.596;11.070;2024-01-06T09:27:20;97467.53;;;7.39
15360;BMP280;7779;49.596;11.070;2024-01-06T09:29:46;97473.59;;;7.44
15360;BMP280;7779;49.596;11.070;2024-01-06T09:32:12;97476.38;;;7.49
15360;BMP280;7779;49.596;11.070;2024-01-06T09:34:39;97473.34;;;7.54
15360;BMP280;7779;49.596;11.070;2024-01-06T09:37:04;97464.50;;;7.59
15360;BMP280;7779;49.596;11.070;2024-01-06T09:39:30;97468.94;;;7.65
15360;BMP280;7779;49.596;11.070;2024-01-06T09:41:59;97478.38;;;7.70
15360;BMP280;7779;49.596;11.070;2024-01-06T09:44:25;97477.13;;;7.78
15360;BMP280;7779;49.596;11.070;2024-01-06T09:46:50;97480.00;;;7.85
15360;BMP280;7779;49.596;11.070;2024-01-06T09:49:23;97477.91;;;7.93
15360;BMP280;7779;49.596;11.070;2024-01-06T09:51:51;97483.38;;;8.02
15360;BMP280;7779;49.596;11.070;2024-01-06T09:54:23;97486.28;;;8.09
15360;BMP280;7779;49.596;11.070;2024-01-06T09:56:51;97480.94;;;8.18
15360;BMP280;7779;49.596;11.070;2024-01-06T09:59:18;97485.47;;;8.24
15360;BMP280;7779;49.596;11.070;2024-01-06T10:01:45;97482.41;;;8.30
15360;BMP280;7779;49.596;11.070;2024-01-06T10:04:11;97483.56;;;8.36
15360;BMP280;7779;49.596;11.070;2024-01-06T10:06:36;97488.91;;;8.42
15360;BMP280;7779;49.596;11.070;2024-01-06T10:09:03;97483.41;;;8.49
15360;BMP280;7779;49.596;11.070;2024-01-06T10:11:30;97480.44;;;8.56
15360;BMP280;7779;49.596;11.070;2024-01-06T10:13:56;97484.97;;;8.63
15360;BMP280;7779;49.596;11.070;2024-01-06T10:16:22;97488.63;;;8.69
15360;BMP280;7779;49.596;11.070;2024-01-06T10:18:48;97491.41;;;8.75
15360;BMP280;7779;49.596;11.070;2024-01-06T10:21:13;97485.94;;;8.82
15360;BMP280;7779;49.596;11.070;2024-01-06T10:23:43;97484.59;;;8.89
15360;BMP280;7779;49.596;11.070;2024-01-06T10:26:13;97477.47;;;8.96
15360;BMP280;7779;49.596;11.070;2024-01-06T10:28:39;97477.78;;;9.02
15360;BMP280;7779;49.596;11.070;2024-01-06T10:31:08;97479.69;;;9.07
15360;BMP280;7779;49.596;11.070;2024-01-06T10:33:34;97485.91;;;9.15
15360;BMP280;7779;49.596;11.070;2024-01-06T10:36:00;97483.72;;;9.21
15360;BMP280;7779;49.596;11.070;2024-01-06T10:38:26;97486.50;;;9.27
15360;BMP280;7779;49.596;11.070;2024-01-06T10:40:59;97493.50;;;9.34
15360;BMP280;7779;49.596;11.070;2024-01-06T10:43:27;97494.56;;;9.39
15360;BMP280;7779;49.596;11.070;2024-01-06T10:45:59;97486.56;;;9.46
15360;BMP280;7779;49.596;11.070;2024-01-06T10:48:32;97485.91;;;9.50
15360;BMP280;7779;49.596;11.070;2024-01-06T10:50:59;97489.50;;;9.55
15360;BMP280;7779;49.596;11.070;2024-01-06T10:53:27;97486.50;;;9.62
15360;BMP280;7779;49.596;11.070;2024-01-06T10:55:53;97491.75;;;9.68
15360;BMP280;7779;49.596;11.070;2024-01-06T10:58:19;97485.19;;;9.70
15360;BMP280;7779;49.596;11.070;2024-01-06T11:00:46;97486.19;;;9.73
15360;BMP280;7779;49.596;11.070;2024-01-06T11:03:14;97483.75;;;9.74
15360;BMP280;7779;49.596;11.070;2024-01-06T11:05:42;97483.91;;;9.77
15360;BMP280;7779;49.596;11.070;2024-01-06T11:08:10;97479.00;;;9.80
15360;BMP280;7779;49.596;11.070;2024-01-06T11:10:37;97486.66;;;9.83
15360;BMP280;7779;49.596;11.070;2024-01-06T11:13:15;97485.25;;;9.88
15360;BMP280;7779;49.596;11.070;2024-01-06T11:15:53;97476.34;;;9.93
15360;BMP280;7779;49.596;11.070;2024-01-06T11:18:39;97479.84;;;9.97
15360;BMP280;7779;49.596;11.070;2024-01-06T11:21:21;97474.16;;;10.01
15360;BMP280;7779;49.596;11.070;2024-01-06T11:24:22;97482.72;;;10.06
15360;BMP280;7779;49.596;11.070;2024-01-06T11:26:53;97489.44;;;10.07
15360;BMP280;7779;49.596;11.070;2024-01-06T11:29:21;97485.59;;;10.13
15360;BMP280;7779;49.596;11.070;2024-01-06T11:32:17;97486.56;;;10.16
15360;BMP280;7779;49.596;11.070;2024-01-06T11:34:48;97482.41;;;10.17
15360;BMP280;7779;49.596;11.070;2024-01-06T11:43:09;97475.16;;;10.23
15360;BMP280;7779;49.596;11.070;2024-01-06T11:45:38;97469.38;;;10.24
15360;BMP280;7779;49.596;11.070;2024-01-06T11:48:08;97468.66;;;10.26
15360;BMP280;7779;49.596;11.070;2024-01-06T11:50:37;97474.66;;;10.30
15360;BMP280;7779;49.596;11.070;2024-01-06T11:53:05;97470.63;;;10.33
15360;BMP280;7779;49.596;11.070;2024-01-06T11:55:31;97465.72;;;10.36
15360;BMP280;7779;49.596;11.070;2024-01-06T11:57:58;97461.72;;;10.40
15360;BMP280;7779;49.596;11.070;2024-01-06T12:00:28;97463.50;;;10.42
15360;BMP280;7779;49.596;11.070;2024-01-06T12:02:58;97457.00;;;10.46
15360;BMP280;7779;49.596;11.070;2024-01-06T12:05:25;97459.56;;;10.47
15360;BMP280;7779;49.596;11.070;2024-01-06T12:08:03;97453.88;;;10.51
15360;BMP280;7779;49.596;11.070;2024-01-06T12:10:33;97447.22;;;10.52
15360;BMP280;7779;49.596;11.070;2024-01-06T12:13:04;97438.19;;;10.55
15360;BMP280;7779;49.596;11.070;2024-01-06T12:15:32;97443.34;;;10.58
15360;BMP280;7779;49.596;11.070;2024-01-06T12:18:03;97438.44;;;10.61
15360;BMP280;7779;49.596;11.070;2024-01-06T12:20:29;97442.72;;;10.63
15360;BMP280;7779;49.596;11.070;2024-01-06T12:22:56;97441.00;;;10.62
15360;BMP280;7779;49.596;11.070;2024-01-06T12:25:23;97445.25;;;10.63
15360;BMP280;7779;49.596;11.070;2024-01-06T12:27:52;97442.72;;;10.63
15360;BMP280;7779;49.596;11.070;2024-01-06T12:30:21;97446.16;;;10.65
15360;BMP280;7779;49.596;11.070;2024-01-06T12:32:50;97444.56;;;10.67
15360;BMP280;7779;49.596;11.070;2024-01-06T12:35:19;97441.25;;;10.68
15360;BMP280;7779;49.596;11.070;2024-01-06T12:37:45;97437.06;;;10.67
15360;BMP280;7779;49.596;11.070;2024-01-06T12:40:13;97444.56;;;10.67
15360;BMP280;7779;49.596;11.070;2024-01-06T12:42:40;97441.25;;;10.68
15360;BMP280;7779;49.596;11.070;2024-01-06T12:45:06;97441.31;;;10.70
15360;BMP280;7779;49.596;11.070;2024-01-06T12:47:33;97443.88;;;10.71
15360;BMP280;7779;49.596;11.070;2024-01-06T12:49:59;97444.81;;;10.73
15360;BMP280;7779;49.596;11.070;2024-01-06T12:52:25;97432.28;;;10.73
15360;BMP280;7779;49.596;11.070;2024-01-06T12:54:50;97444.81;;;10.73
15360;BMP280;7779;49.596;11.070;2024-01-06T12:57:16;97442.22;;;10.72
15360;BMP280;7779;49.596;11.070;2024-01-06T12:59:42;97436.38;;;10.71
15360;BMP280;7779;49.596;11.070;2024-01-06T13:02:08;97434.53;;;10.67
15360;BMP280;7779;49.596;11.070;2024-01-06T13:04:34;97437.75;;;10.65
15360;BMP280;7779;49.596;11.070;2024-01-06T13:07:00;97433.44;;;10.61
15360;BMP280;7779;49.596;11.070;2024-01-06T13:09:27;97427.44;;;10.57
15360;BMP280;7779;49.596;11.070;2024-01-06T13:11:53;97433.25;;;10.56
15360;BMP280;7779;49.596;11.070;2024-01-06T13:14:21;97434.03;;;10.55
15360;BMP280;7779;49.596;11.070;2024-01-06T13:16:47;97443.25;;;10.56
15360;BMP280;7779;49.596;11.070;2024-01-06T13:19:13;97442.38;;;10.56
15360;BMP280;7779;49.596;11.070;2024-01-06T13:21:39;97437.38;;;10.56
15360;BMP280;7779;49.596;11.070;2024-01-06T13:24:06;97454.91;;;10.56
15360;BMP280;7779;49.596;11.070;2024-01-06T13:26:32;97459.06;;;10.55
15360;BMP280;7779;49.596;11.070;2024-01-06T13:28:59;97465.81;;;10.56
15360;BMP280;7779;49.596;11.070;2024-01-06T13:31:25;97459.91;;;10.56
15360;BMP280;7779;49.596;11.070;2024-01-06T13:33:52;97461.56;;;10.55
15360;BMP280;7779;49.596;11.070;2024-01-06T13:36:20;97465.72;;;10.55
15360;BMP280;7779;49.596;11.070;2024-01-06T13:38:45;97460.66;;;10.53
15360;BMP280;7779;49.596;11.070;2024-01-06T13:41:12;97466.47;;;10.52
15360;BMP280;7779;49.596;11.070;2024-01-06T13:43:38;97464.69;;;10.50
15360;BMP280;7779;49.596;11.070;2024-01-06T13:46:03;97469.56;;;10.47
15360;BMP280;7779;49.596;11.070;2024-01-06T13:48:29;97472.84;;;10.46
15360;BMP280;7779;49.596;11.070;2024-01-06T13:50:55;97470.28;;;10.45
15360;BMP280;7779;49.596;11.070;2024-01-06T13:53:21;97483.66;;;10.45
15360;BMP280;7779;49.596;11.070;2024-01-06T13:55:47;97477.72;;;10.43
15360;BMP280;7779;49.596;11.070;2024-01-06T13:58:13;97486.13;;;10.44
15360;BMP280;7779;49.596;11.070;2024-01-06T14:00:39;97476.03;;;10.42
15360;BMP280;7779;49.596;11.070;2024-01-06T14:03:06;97480.97;;;10.41
15360;BMP280;7779;49.596;11.070;2024-01-06T14:05:33;97476.69;;;10.38
15360;BMP280;7779;49.596;11.070;2024-01-06T14:07:58;97479.13;;;10.37
15360;BMP280;7779;49.596;11.070;2024-01-06T14:10:24;97480.72;;;10.35
15360;BMP280;7779;49.596;11.070;2024-01-06T14:12:50;97483.22;;;10.35
15360;BMP280;7779;49.596;11.070;2024-01-06T14:15:16;97489.81;;;10.33
15360;BMP280;7779;49.596;11.070;2024-01-06T14:17:41;97486.50;;;10.34
15360;BMP280;7779;49.596;11.070;2024-01-06T14:20:09;97479.78;;;10.33
15360;BMP280;7779;49.596;11.070;2024-01-06T14:22:38;97488.16;;;10.33